createdAt,value
2022-12-25T00:00:21.206Z,31.40
2022-12-25T00:05:23.788Z,31.50
2022-12-25T00:10:26.029Z,31.40
2022-12-25T00:15:28.158Z,31.50
2022-12-25T00:20:30.224Z,31.40
2022-12-25T00:25:32.377Z,31.30
2022-12-25T00:30:34.530Z,31.60
2022-12-25T00:40:44.064Z,31.60
2022-12-25T00:45:55.798Z,31.60
2022-12-25T00:51:00.558Z,31.70
2022-12-25T00:56:05.934Z,31.90
2022-12-25T01:01:11.023Z,31.90
2022-12-25T01:06:13.442Z,31.80
2022-12-25T01:11:15.569Z,31.80
2022-12-25T01:21:21.715Z,31.70
2022-12-25T01:26:25.986Z,31.90
2022-12-25T01:36:30.720Z,31.90
2022-12-25T01:41:32.934Z,31.80
2022-12-25T01:46:35.740Z,31.70
2022-12-25T01:51:49.357Z,31.60
2022-12-25T01:56:53.873Z,31.60
2022-12-25T02:01:57.400Z,31.60
2022-12-25T02:06:59.865Z,31.70
2022-12-25T02:12:02.118Z,31.50
2022-12-25T02:17:36.265Z,31.60
2022-12-25T02:22:38.267Z,31.70
2022-12-25T02:27:57.396Z,31.60
2022-12-25T02:33:25.038Z,31.80
2022-12-25T02:38:36.512Z,32.10
2022-12-25T02:44:02.490Z,32.10
2022-12-25T02:49:35.669Z,32.30
2022-12-25T02:55:00.805Z,32.20
2022-12-25T03:00:23.574Z,32.00
2022-12-25T03:05:46.911Z,31.80
2022-12-25T03:11:20.949Z,31.60
2022-12-25T03:16:41.744Z,31.40
2022-12-25T03:22:02.530Z,31.20
2022-12-25T03:27:04.671Z,31.10
2022-12-25T03:32:10.893Z,32.10
2022-12-25T03:37:44.737Z,31.10
2022-12-25T03:43:12.511Z,31.10
2022-12-25T03:48:35.223Z,31.20
2022-12-25T03:54:17.675Z,31.40
2022-12-25T03:59:40.489Z,31.50
2022-12-25T04:05:01.443Z,31.60
2022-12-25T04:15:43.854Z,31.80
2022-12-25T04:21:04.681Z,32.20
2022-12-25T04:26:25.580Z,32.20
2022-12-25T04:31:46.341Z,32.80
2022-12-25T04:36:48.451Z,32.70
2022-12-25T04:41:50.540Z,33.00
2022-12-25T04:46:52.796Z,33.10
2022-12-25T04:51:55.220Z,33.20
2022-12-25T04:56:57.528Z,33.10
2022-12-25T05:01:59.855Z,33.10
2022-12-25T05:07:02.052Z,33.20
2022-12-25T05:12:04.488Z,33.10
2022-12-25T05:17:07.921Z,33.20
2022-12-25T05:22:10.034Z,33.50
2022-12-25T05:27:12.136Z,33.20
2022-12-25T05:32:14.351Z,33.20
2022-12-25T05:37:16.460Z,33.20
2022-12-25T05:42:18.610Z,33.20
2022-12-25T05:47:20.772Z,33.10
2022-12-25T05:52:23.419Z,33.20
2022-12-25T05:57:25.831Z,33.00
2022-12-25T06:02:28.004Z,33.10
2022-12-25T06:07:31.009Z,33.10
2022-12-25T06:12:33.112Z,33.10
2022-12-25T06:17:35.270Z,32.90
2022-12-25T06:22:37.449Z,32.80
2022-12-25T06:27:39.652Z,33.00
2022-12-25T06:32:41.894Z,33.10
2022-12-25T06:37:44.059Z,33.20
2022-12-25T06:42:46.155Z,33.10
2022-12-25T06:47:48.305Z,33.00
2022-12-25T06:52:50.479Z,33.00
2022-12-25T06:57:52.615Z,32.90
2022-12-25T07:02:54.784Z,32.80
2022-12-25T07:07:56.988Z,32.80
2022-12-25T07:12:59.161Z,32.80
2022-12-25T07:18:01.654Z,32.80
2022-12-25T07:28:06.464Z,32.50
2022-12-25T07:33:08.579Z,32.60
2022-12-25T07:38:11.239Z,32.60
2022-12-25T07:43:13.431Z,32.60
2022-12-25T07:53:19.306Z,32.50
2022-12-25T08:03:26.126Z,32.50
2022-12-25T08:08:28.586Z,32.60
2022-12-25T08:13:32.190Z,32.70
2022-12-25T08:18:36.199Z,32.80
2022-12-25T08:23:41.478Z,32.80
2022-12-25T08:28:43.789Z,33.10
2022-12-25T08:33:47.831Z,32.70
2022-12-25T08:38:51.238Z,32.80
2022-12-25T08:43:53.946Z,32.90
2022-12-25T08:48:56.858Z,32.80
2022-12-25T08:54:00.950Z,32.90
2022-12-25T08:59:03.346Z,33.10
2022-12-25T09:04:05.574Z,32.80
2022-12-25T09:09:07.881Z,32.80
2022-12-25T09:14:09.986Z,32.80
2022-12-25T09:19:12.073Z,32.90
2022-12-25T09:24:14.184Z,33.00
2022-12-25T09:29:17.981Z,32.90
2022-12-25T09:34:20.094Z,33.10
2022-12-25T09:39:23.355Z,32.90
2022-12-25T09:44:42.973Z,33.00
2022-12-25T09:50:06.801Z,32.80
2022-12-25T09:55:20.644Z,32.70
2022-12-25T10:00:26.103Z,32.60
2022-12-25T10:05:46.960Z,32.10
2022-12-25T10:10:56.141Z,32.20
2022-12-25T10:16:12.107Z,32.30
2022-12-25T10:21:18.253Z,32.40
2022-12-25T10:26:25.059Z,32.20
2022-12-25T10:31:30.292Z,32.20
2022-12-25T10:36:33.585Z,31.80
2022-12-25T10:41:50.996Z,31.70
2022-12-25T10:46:55.806Z,31.10
2022-12-25T10:51:58.247Z,31.00
2022-12-25T10:57:03.726Z,30.70
2022-12-25T11:02:20.046Z,30.90
2022-12-25T11:07:26.042Z,30.90
2022-12-25T11:12:48.631Z,31.00
2022-12-25T11:17:50.799Z,30.80
2022-12-25T11:22:53.081Z,30.50
2022-12-25T11:28:06.795Z,30.50
2022-12-25T11:33:13.594Z,30.50
2022-12-25T11:38:15.862Z,30.70
2022-12-25T11:43:41.219Z,30.60
2022-12-25T11:48:50.171Z,30.50
2022-12-25T11:53:58.136Z,30.20
2022-12-25T11:59:24.028Z,30.50
2022-12-25T12:04:46.447Z,30.10
2022-12-25T12:09:58.081Z,29.90
2022-12-25T12:15:21.803Z,29.90
2022-12-25T12:20:31.808Z,30.00
2022-12-25T12:25:40.518Z,29.90
2022-12-25T12:30:42.690Z,29.50
2022-12-25T12:35:45.068Z,29.10
2022-12-25T12:40:57.572Z,29.10
2022-12-25T12:46:31.500Z,28.40
2022-12-25T12:51:36.647Z,28.80
2022-12-25T12:56:38.794Z,28.30
2022-12-25T13:02:08.357Z,28.00
2022-12-25T13:07:31.987Z,27.70
2022-12-25T13:12:34.703Z,27.80
2022-12-25T13:17:37.561Z,27.50
2022-12-25T13:22:39.676Z,27.10
2022-12-25T13:27:41.785Z,27.00
2022-12-25T13:32:45.691Z,26.80
2022-12-25T13:37:48.246Z,26.50
2022-12-25T13:42:56.487Z,26.70
2022-12-25T13:48:09.323Z,26.60
2022-12-25T13:53:16.679Z,26.30
2022-12-25T13:58:22.921Z,26.30
2022-12-25T14:03:39.188Z,26.20
2022-12-25T14:08:41.709Z,26.40
2022-12-25T14:13:45.379Z,26.50
2022-12-25T14:18:58.956Z,26.40
2022-12-25T14:24:01.359Z,26.60
2022-12-25T14:29:11.189Z,26.60
2022-12-25T14:34:22.854Z,26.50
2022-12-25T14:39:35.372Z,26.60
2022-12-25T14:44:39.846Z,26.40
2022-12-25T14:49:42.559Z,26.60
2022-12-25T14:54:58.482Z,26.70
2022-12-25T15:00:08.068Z,26.70
2022-12-25T15:05:30.567Z,26.90
2022-12-25T15:16:06.270Z,26.90
2022-12-25T15:21:17.548Z,27.20
2022-12-25T15:26:19.776Z,27.40
2022-12-25T15:31:27.498Z,27.30
2022-12-25T15:36:30.188Z,27.30
2022-12-25T15:41:54.390Z,27.40
2022-12-25T15:46:57.836Z,27.50
2022-12-25T15:52:00.008Z,27.70
2022-12-25T15:57:04.973Z,27.60
2022-12-25T16:02:18.784Z,28.10
2022-12-25T16:07:23.672Z,28.20
2022-12-25T16:12:26.306Z,28.90
2022-12-25T16:17:28.398Z,29.00
2022-12-25T16:22:31.803Z,28.30
2022-12-25T16:27:33.926Z,29.10
2022-12-25T16:32:36.052Z,29.70
2022-12-25T16:37:39.055Z,29.00
2022-12-25T16:42:41.245Z,28.90
2022-12-25T16:47:43.392Z,28.90
2022-12-25T16:57:51.039Z,28.80
2022-12-25T17:02:53.401Z,28.80
2022-12-25T17:12:58.152Z,29.20
2022-12-25T17:18:00.251Z,29.40
2022-12-25T17:23:02.412Z,30.00
2022-12-25T17:28:04.812Z,29.30
2022-12-25T17:33:06.915Z,29.70
2022-12-25T17:43:15.793Z,30.00
2022-12-25T17:48:22.745Z,29.80
2022-12-25T17:53:24.882Z,30.00
2022-12-25T17:58:27.522Z,30.00
2022-12-25T18:03:29.658Z,30.00
2022-12-25T18:08:38.644Z,30.10
2022-12-25T18:13:44.725Z,30.40
2022-12-25T18:18:51.750Z,30.60
2022-12-25T18:23:54.823Z,30.50
2022-12-25T18:28:57.599Z,30.50
2022-12-25T18:34:01.399Z,30.20
2022-12-25T18:39:03.656Z,30.00
2022-12-25T18:44:05.788Z,30.00
2022-12-25T18:49:08.501Z,30.00
2022-12-25T18:54:10.552Z,30.00
2022-12-25T18:59:12.680Z,29.70
2022-12-25T19:04:16.201Z,29.70
2022-12-25T19:09:18.493Z,29.70
2022-12-25T19:14:20.673Z,28.80
2022-12-25T19:19:24.342Z,29.00
2022-12-25T19:24:26.483Z,29.00
2022-12-25T19:29:28.774Z,28.40
2022-12-25T19:34:31.032Z,27.60
2022-12-25T19:39:33.149Z,27.70
2022-12-25T19:44:35.224Z,27.50
2022-12-25T19:49:37.429Z,27.20
2022-12-25T19:54:39.598Z,27.40
2022-12-25T19:59:41.703Z,27.30
2022-12-25T20:04:43.925Z,27.10
2022-12-25T20:09:46.177Z,27.20
2022-12-25T20:14:49.301Z,27.10
2022-12-25T20:19:51.407Z,27.10
2022-12-25T20:24:53.561Z,27.00
2022-12-25T20:29:55.697Z,26.90
2022-12-25T20:34:57.859Z,26.80
2022-12-25T20:40:00.010Z,26.70
2022-12-25T20:50:05.081Z,26.70
2022-12-25T20:55:07.444Z,26.70
2022-12-25T21:00:10.681Z,26.50
2022-12-25T21:05:12.790Z,26.80
2022-12-25T21:10:14.920Z,26.70
2022-12-25T21:15:17.094Z,26.80
2022-12-25T21:20:19.303Z,26.60
2022-12-25T21:25:21.380Z,26.60
2022-12-25T21:30:23.487Z,26.70
2022-12-25T21:35:25.710Z,26.60
2022-12-25T21:40:27.892Z,26.60
2022-12-25T21:45:30.820Z,26.50
2022-12-25T21:50:51.493Z,26.40
2022-12-25T21:55:58.604Z,26.40
2022-12-25T22:01:05.074Z,26.40
2022-12-25T22:06:25.700Z,26.30
2022-12-25T22:11:46.575Z,26.30
2022-12-25T22:17:07.687Z,26.20
2022-12-25T22:22:11.203Z,26.30
2022-12-25T22:27:13.775Z,26.90
2022-12-25T22:32:16.854Z,26.30
2022-12-25T22:42:21.717Z,26.30
2022-12-25T22:47:23.874Z,26.30
2022-12-25T22:52:26.789Z,26.30
2022-12-25T22:57:29.294Z,26.30
2022-12-25T23:02:31.604Z,26.20
2022-12-25T23:07:33.958Z,26.20
2022-12-25T23:12:54.718Z,26.10
2022-12-25T23:18:15.609Z,26.30
2022-12-25T23:23:36.535Z,26.40
2022-12-25T23:29:01.761Z,26.20
2022-12-25T23:34:05.506Z,26.00
2022-12-25T23:39:10.451Z,26.10
2022-12-25T23:44:14.055Z,26.10
2022-12-25T23:49:16.900Z,26.10
2022-12-25T23:54:22.937Z,26.10
2022-12-25T23:59:26.953Z,26.00
